Terminal Aerodrome Forecast
Issued by NWS

Home | Current Version | Previous Version | Text Only | Print | Product List | Glossary On
Versions: 1 2 3 4 5 6 7 8 9 10 11 12 13 14 15 16 17 18 19 20 21 22 23 24 25 26 27 28 29 30 31 32 33 34 35 36
165
FTUS45 KGJT 230529
TAFEGE
TAF
KEGE 230529Z 2306/2406 07005KT P6SM VCSH SCT100
      TEMPO 2306/2310 VRB10G18KT -SHRA FEW050 BKN070
     FM231200 12006KT P6SM VCSH BKN070
     FM231800 24008KT P6SM VCTS SCT060CB BKN080
     FM240000 23007KT P6SM SCT060 BKN080
      AMD LTD TO CLD VIS AND WIND TIL 231300=

USA.gov is the U.S. government's official web portal to all federal, state and local government web resources and services.